Accueil
METAR-TAF:

METAR-TAF

Aéroports :

Zagreb, Croatie

Aéroport de Zagreb

latitude: 45-44N, longitude: 016-04E, altitude: 106 m

Observation

Le bulletin a été fait il y a 30 minutes, à 12:30 UTC
Vent 4 kt de direction variable
Température 10°C
Humidité 50%
Pression 1022 hPa
Visibilité 10 km ou plus
pas de nuages en-dessous de 1500 mètres et pas de cumulonimbus.

METAR: LDZA 261230Z VRB04KT CAVOK 10/00 Q1022 TEMPO 05010KT

Heure: 15:00 (13:00 UTC)

Prévision

Le bulletin a été fait il y a 1 heure et 35 minutes, à 11:25 UTC
Prévision valable du 26 à 12 UTC au 27 à 12 UTC
Vent 7 kt de nord-est
Visibilité 10 km ou plus
Nuages fragmentés à une hauteur de 4500 ft
Probabilité 40% :
Temporairement
du 26 à 12 UTC au 26 à 24 UTC
Vent 12 kt de nord-est

TAF: LDZA 261125Z 2612/2712 05007KT 9999 BKN045 TX12/2614Z TN00/2705Z PROB40 TEMPO 2612/2624 05012KT

Observations et prévisions météorologiques de plus de 4000 aéroports (messages METAR et TAF).

Les stations disponibles sont représentées par des disques jaunes et rouges sur la carte.

Passer la souris dessus pour voir le nom de la station.

Cliquer dessus pour voir les observations et prévisions météorologiques.

Pour changer de carte: cliquez sur les boutons verts avec une croix noire pour zoomer, sur le bouton vert avec un tiret pour effectuer un zoom arrière, ou sur les flèches vertes pour les cartes adjacentes.


METAR-TAF: